createdAt,value
2018-12-05T00:01:16.848Z,2.60
2018-12-05T00:03:53.891Z,2.60
2018-12-05T00:06:30.283Z,2.70
2018-12-05T00:09:07.224Z,2.60
2018-12-05T00:11:45.117Z,2.60
2018-12-05T00:14:22.648Z,2.60
2018-12-05T00:16:59.893Z,2.60
2018-12-05T00:19:39.168Z,2.70
2018-12-05T00:22:15.274Z,2.60
2018-12-05T00:24:55.738Z,2.60
2018-12-05T00:27:34.326Z,2.60
2018-12-05T00:30:13.045Z,2.60
2018-12-05T00:32:49.960Z,2.60
2018-12-05T00:35:26.682Z,2.60
2018-12-05T00:38:07.010Z,2.60
2018-12-05T00:40:43.746Z,2.60
2018-12-05T00:43:21.162Z,2.60
2018-12-05T00:45:57.733Z,2.50
2018-12-05T00:48:35.780Z,2.50
2018-12-05T00:51:13.769Z,2.40
2018-12-05T00:53:49.940Z,2.40
2018-12-05T00:56:26.058Z,2.30
2018-12-05T00:59:02.641Z,2.30
2018-12-05T01:01:38.782Z,2.30
2018-12-05T01:04:16.430Z,2.20
2018-12-05T01:06:50.528Z,2.20
2018-12-05T01:09:25.521Z,2.20
2018-12-05T01:12:02.814Z,2.20
2018-12-05T01:14:39.157Z,2.20
2018-12-05T01:17:17.925Z,2.20
2018-12-05T01:19:56.339Z,2.20
2018-12-05T01:22:35.186Z,2.20
2018-12-05T01:25:13.330Z,2.20
2018-12-05T01:27:53.286Z,2.10
2018-12-05T01:30:31.142Z,2.10
2018-12-05T01:33:09.410Z,2.10
2018-12-05T01:35:45.406Z,2.10
2018-12-05T01:38:24.121Z,2.10
2018-12-05T01:41:09.529Z,2.00
2018-12-05T01:43:53.340Z,2.10
2018-12-05T01:46:30.845Z,2.10
2018-12-05T01:49:10.020Z,2.10
2018-12-05T01:51:47.907Z,2.00
2018-12-05T01:54:24.423Z,2.00
2018-12-05T01:57:00.511Z,2.10
2018-12-05T01:59:37.537Z,2.10
2018-12-05T02:02:13.396Z,2.10
2018-12-05T02:04:53.226Z,2.00
2018-12-05T02:07:31.624Z,2.00
2018-12-05T02:10:05.560Z,2.00
2018-12-05T02:12:42.904Z,1.90
2018-12-05T02:15:19.070Z,1.90
2018-12-05T02:17:55.165Z,1.90
2018-12-05T02:20:30.606Z,1.90
2018-12-05T02:23:08.274Z,1.90
2018-12-05T02:25:45.596Z,1.90
2018-12-05T02:28:22.588Z,1.80
2018-12-05T02:31:01.818Z,1.80
2018-12-05T02:33:38.150Z,1.80
2018-12-05T02:36:15.622Z,1.80
2018-12-05T02:38:54.786Z,1.80
2018-12-05T02:41:28.318Z,1.80
2018-12-05T02:44:05.615Z,1.80
2018-12-05T02:46:42.737Z,1.80
2018-12-05T02:49:20.092Z,1.80
2018-12-05T02:51:57.365Z,1.80
2018-12-05T02:54:32.167Z,1.70
2018-12-05T02:57:07.656Z,1.70
2018-12-05T02:59:45.029Z,1.70
2018-12-05T03:02:23.772Z,1.70
2018-12-05T03:05:01.491Z,1.70
2018-12-05T03:07:38.280Z,1.70
2018-12-05T03:10:13.650Z,1.70
2018-12-05T03:12:53.569Z,1.60
2018-12-05T03:15:30.610Z,1.60
2018-12-05T03:18:06.351Z,1.60
2018-12-05T03:20:44.709Z,1.70
2018-12-05T03:23:21.662Z,1.70
2018-12-05T03:25:59.031Z,1.70
2018-12-05T03:28:36.253Z,1.70
2018-12-05T03:32:17.163Z,1.60
2018-12-05T03:34:53.616Z,1.60
2018-12-05T03:37:31.960Z,1.50
2018-12-05T03:40:08.659Z,1.60
2018-12-05T03:42:45.981Z,1.60
2018-12-05T03:45:21.884Z,1.60
2018-12-05T03:48:00.802Z,1.60
2018-12-05T03:50:40.154Z,1.60
2018-12-05T03:53:18.837Z,1.50
2018-12-05T03:55:56.581Z,1.60
2018-12-05T03:58:35.932Z,1.60
2018-12-05T04:01:15.354Z,1.60
2018-12-05T04:03:53.797Z,1.50
2018-12-05T04:06:29.638Z,1.50
2018-12-05T04:09:09.227Z,1.50
2018-12-05T04:11:52.641Z,1.50
2018-12-05T04:14:30.582Z,1.50
2018-12-05T04:17:10.537Z,1.40
2018-12-05T04:19:49.060Z,1.40
2018-12-05T04:22:28.858Z,1.40
2018-12-05T04:25:03.553Z,1.50
2018-12-05T04:27:41.815Z,1.40
2018-12-05T04:30:18.774Z,1.40
2018-12-05T04:32:54.488Z,1.40
2018-12-05T04:35:30.960Z,1.40
2018-12-05T04:38:07.982Z,1.40
2018-12-05T04:40:45.727Z,1.40
2018-12-05T04:43:24.692Z,1.30
2018-12-05T04:46:01.019Z,1.40
2018-12-05T04:48:41.247Z,1.40
2018-12-05T04:51:20.236Z,1.40
2018-12-05T04:53:58.466Z,1.40
2018-12-05T04:56:35.901Z,1.40
2018-12-05T04:59:11.697Z,1.40
2018-12-05T05:01:48.217Z,1.30
2018-12-05T05:04:26.204Z,1.40
2018-12-05T05:07:03.754Z,1.30
2018-12-05T05:09:43.701Z,1.30
2018-12-05T05:12:19.107Z,1.30
2018-12-05T05:14:59.271Z,1.30
2018-12-05T05:17:39.896Z,1.30
2018-12-05T05:20:14.922Z,1.20
2018-12-05T05:22:53.985Z,1.20
2018-12-05T05:25:30.850Z,1.20
2018-12-05T05:28:09.440Z,1.30
2018-12-05T05:30:50.286Z,1.20
2018-12-05T05:33:29.776Z,1.20
2018-12-05T05:36:10.050Z,1.20
2018-12-05T05:38:44.767Z,1.10
2018-12-05T05:41:23.571Z,1.20
2018-12-05T05:44:02.681Z,1.10
2018-12-05T05:46:39.696Z,1.10
2018-12-05T05:49:16.102Z,1.10
2018-12-05T05:51:53.553Z,1.10
2018-12-05T05:54:32.019Z,1.00
2018-12-05T05:57:08.508Z,1.00
2018-12-05T05:59:45.473Z,1.10
2018-12-05T06:02:22.916Z,1.10
2018-12-05T06:05:01.380Z,1.00
2018-12-05T06:07:39.147Z,0.90
2018-12-05T06:10:15.420Z,1.00
2018-12-05T06:12:53.230Z,1.00
2018-12-05T06:15:32.317Z,1.00
2018-12-05T06:18:11.136Z,1.00
2018-12-05T06:20:48.181Z,1.00
2018-12-05T06:23:26.833Z,0.90
2018-12-05T06:26:06.034Z,0.90
2018-12-05T06:28:42.902Z,0.90
2018-12-05T06:31:19.822Z,0.90
2018-12-05T06:33:56.043Z,0.90
2018-12-05T06:36:33.792Z,0.90
2018-12-05T06:39:14.963Z,0.80
2018-12-05T06:41:53.044Z,0.90
2018-12-05T06:44:30.891Z,0.90
2018-12-05T06:47:07.314Z,0.90
2018-12-05T06:49:45.366Z,0.80
2018-12-05T06:52:21.585Z,0.80
2018-12-05T06:54:58.881Z,0.70
2018-12-05T06:57:37.965Z,0.70
2018-12-05T07:00:15.329Z,0.70
2018-12-05T07:02:49.861Z,0.70
2018-12-05T07:05:25.829Z,0.80
2018-12-05T07:08:07.829Z,0.70
2018-12-05T07:10:45.093Z,0.70
2018-12-05T07:13:23.561Z,0.70
2018-12-05T07:16:06.115Z,0.70
2018-12-05T07:18:46.330Z,0.80
2018-12-05T07:21:27.086Z,0.80
2018-12-05T07:24:02.645Z,0.80
2018-12-05T07:26:39.161Z,0.80
2018-12-05T07:29:16.786Z,0.70
2018-12-05T07:31:56.101Z,0.60
2018-12-05T07:34:36.000Z,0.70
2018-12-05T07:37:15.858Z,0.70
2018-12-05T07:39:54.843Z,0.70
2018-12-05T07:42:31.980Z,0.70
2018-12-05T07:45:10.003Z,0.70
2018-12-05T07:47:46.166Z,0.70
2018-12-05T07:50:24.038Z,0.70
2018-12-05T07:53:00.307Z,0.70
2018-12-05T07:55:40.173Z,0.70
2018-12-05T07:58:17.600Z,0.70
2018-12-05T08:00:56.090Z,0.70
2018-12-05T08:03:33.705Z,0.80
2018-12-05T08:06:10.317Z,0.90
2018-12-05T08:08:49.788Z,0.80
2018-12-05T08:11:27.149Z,0.90
2018-12-05T08:14:03.766Z,0.80
2018-12-05T08:16:40.548Z,0.80
2018-12-05T08:19:17.085Z,0.90
2018-12-05T08:21:56.835Z,0.80
2018-12-05T08:24:36.248Z,0.80
2018-12-05T08:27:13.655Z,0.80
2018-12-05T08:29:51.240Z,0.80
2018-12-05T08:32:27.305Z,0.80
2018-12-05T08:35:04.158Z,0.90
2018-12-05T08:37:41.939Z,0.90
2018-12-05T08:40:18.643Z,0.90
2018-12-05T08:42:56.915Z,1.00
2018-12-05T08:45:32.085Z,0.90
2018-12-05T08:48:08.620Z,1.00
2018-12-05T08:50:46.892Z,1.10
2018-12-05T08:53:25.161Z,1.10
2018-12-05T08:56:02.844Z,1.30
2018-12-05T08:58:42.929Z,1.50
2018-12-05T09:01:19.319Z,1.80
2018-12-05T09:03:57.370Z,1.90
2018-12-05T09:06:34.600Z,2.00
2018-12-05T09:09:13.545Z,2.20
2018-12-05T09:11:48.621Z,2.20
2018-12-05T09:14:28.776Z,2.50
2018-12-05T09:17:02.982Z,2.90
2018-12-05T09:19:39.849Z,3.40
2018-12-05T09:22:15.673Z,3.90
2018-12-05T09:24:54.219Z,4.40
2018-12-05T09:27:35.211Z,4.90
2018-12-05T09:30:13.844Z,5.40
2018-12-05T09:32:50.579Z,5.90
2018-12-05T09:35:26.627Z,5.70
2018-12-05T09:38:04.077Z,5.90
2018-12-05T09:40:40.594Z,6.20
2018-12-05T09:43:19.107Z,6.70
2018-12-05T09:45:58.872Z,6.40
2018-12-05T09:48:37.293Z,6.80
2018-12-05T09:51:14.616Z,6.80
2018-12-05T09:53:50.667Z,6.90
2018-12-05T09:56:28.798Z,7.10
2018-12-05T09:59:05.245Z,7.40
2018-12-05T10:01:41.485Z,7.40
2018-12-05T10:04:16.593Z,7.60
2018-12-05T10:06:51.624Z,7.80
2018-12-05T10:09:29.389Z,8.10
2018-12-05T10:12:09.385Z,7.90
2018-12-05T10:14:47.003Z,8.00
2018-12-05T10:17:25.274Z,8.40
2018-12-05T10:20:04.584Z,8.30
2018-12-05T10:22:41.609Z,7.90
2018-12-05T10:25:18.671Z,7.90
2018-12-05T10:27:57.130Z,8.30
2018-12-05T10:30:33.641Z,8.60
2018-12-05T10:33:14.580Z,8.50
2018-12-05T10:35:51.824Z,8.30
2018-12-05T10:38:30.523Z,8.60
2018-12-05T10:41:07.411Z,8.90
2018-12-05T10:43:45.270Z,9.00
2018-12-05T10:46:23.033Z,8.70
2018-12-05T10:49:00.680Z,8.60
2018-12-05T10:51:39.241Z,8.70
2018-12-05T10:54:15.754Z,8.90
2018-12-05T10:56:54.748Z,9.10
2018-12-05T10:59:31.490Z,8.80
2018-12-05T11:02:14.060Z,8.30
2018-12-05T11:05:58.539Z,8.10
2018-12-05T11:08:38.643Z,6.90
2018-12-05T11:11:18.738Z,5.90
2018-12-05T11:14:01.348Z,4.80
2018-12-05T11:16:40.451Z,4.20
2018-12-05T11:19:22.242Z,3.70
2018-12-05T11:22:05.266Z,3.30
2018-12-05T11:24:46.998Z,3.20
2018-12-05T11:27:23.382Z,3.00
2018-12-05T11:29:59.645Z,2.90
2018-12-05T11:32:36.009Z,2.70
2018-12-05T11:35:14.695Z,2.80
2018-12-05T11:37:53.413Z,2.60
2018-12-05T11:40:27.762Z,2.60
2018-12-05T11:43:03.315Z,2.60
2018-12-05T11:45:39.567Z,2.50
2018-12-05T11:48:16.243Z,2.50
2018-12-05T11:50:53.456Z,2.50
2018-12-05T11:53:31.214Z,2.50
2018-12-05T11:56:10.465Z,2.50
2018-12-05T11:58:45.195Z,2.50
2018-12-05T12:01:20.500Z,2.40
2018-12-05T12:03:56.482Z,2.40
2018-12-05T12:06:34.615Z,2.40
2018-12-05T12:09:14.406Z,2.40
2018-12-05T12:11:50.761Z,2.40
2018-12-05T12:14:27.887Z,2.50
2018-12-05T12:17:04.759Z,2.50
2018-12-05T12:19:41.207Z,2.40
2018-12-05T12:22:18.605Z,2.30
2018-12-05T12:24:54.540Z,2.30
2018-12-05T12:27:31.992Z,2.20
2018-12-05T12:30:15.696Z,2.20
2018-12-05T12:32:49.188Z,2.20
2018-12-05T12:35:25.407Z,2.20
2018-12-05T12:38:05.491Z,2.20
2018-12-05T12:40:42.604Z,2.20
2018-12-05T12:43:21.249Z,2.20
2018-12-05T12:45:59.441Z,2.10
2018-12-05T12:48:39.624Z,2.20
2018-12-05T12:51:18.765Z,2.20
2018-12-05T12:53:53.961Z,2.20
2018-12-05T12:56:30.124Z,2.20
2018-12-05T12:59:10.839Z,2.20
2018-12-05T13:01:49.535Z,2.10
2018-12-05T13:04:27.700Z,2.00
2018-12-05T13:07:07.257Z,2.10
2018-12-05T13:09:45.567Z,2.00
2018-12-05T13:12:25.571Z,1.90
2018-12-05T13:15:01.885Z,2.00
2018-12-05T13:17:40.074Z,2.00
2018-12-05T13:20:18.828Z,2.00
2018-12-05T13:22:57.683Z,2.00
2018-12-05T13:25:33.375Z,2.00
2018-12-05T13:28:08.707Z,2.00
2018-12-05T13:30:45.051Z,2.00
2018-12-05T13:33:23.871Z,1.90
2018-12-05T13:36:01.507Z,1.80
2018-12-05T13:38:37.763Z,1.90
2018-12-05T13:41:15.279Z,1.80
2018-12-05T13:43:54.967Z,1.80
2018-12-05T13:46:30.156Z,1.90
2018-12-05T13:49:07.488Z,1.80
2018-12-05T13:51:45.627Z,1.70
2018-12-05T13:54:16.415Z,1.70
2018-12-05T13:56:54.829Z,1.70
2018-12-05T13:59:30.429Z,1.50
2018-12-05T14:02:07.656Z,1.60
2018-12-05T14:04:45.032Z,1.50
2018-12-05T14:07:25.063Z,1.60
2018-12-05T14:09:59.345Z,1.60
2018-12-05T14:12:43.978Z,1.50
2018-12-05T14:15:21.602Z,1.40
2018-12-05T14:18:01.311Z,1.40
2018-12-05T14:20:35.824Z,1.30
2018-12-05T14:23:11.552Z,1.20
2018-12-05T14:25:46.836Z,1.30
2018-12-05T14:28:25.053Z,1.30
2018-12-05T14:31:00.361Z,1.20
2018-12-05T14:33:37.273Z,1.20
2018-12-05T14:36:14.320Z,1.20
2018-12-05T14:38:53.935Z,1.10
2018-12-05T14:41:30.356Z,1.00
2018-12-05T14:44:06.523Z,0.90
2018-12-05T14:46:44.391Z,0.90
2018-12-05T14:49:20.423Z,0.90
2018-12-05T14:51:55.995Z,0.90
2018-12-05T14:54:31.642Z,1.00
2018-12-05T14:57:05.787Z,1.00
2018-12-05T14:59:43.256Z,1.00
2018-12-05T15:02:20.173Z,1.00
2018-12-05T15:04:56.520Z,1.00
2018-12-05T15:07:33.571Z,1.00
2018-12-05T15:10:09.701Z,1.00
2018-12-05T15:12:49.277Z,1.00
2018-12-05T15:15:27.971Z,1.00
2018-12-05T15:18:04.914Z,0.90
2018-12-05T15:20:41.012Z,0.80
2018-12-05T15:23:20.965Z,0.80
2018-12-05T15:25:59.088Z,0.70
2018-12-05T15:28:38.255Z,0.70
2018-12-05T15:31:17.353Z,0.80
2018-12-05T15:33:55.060Z,0.70
2018-12-05T15:36:31.634Z,0.80
2018-12-05T15:39:10.746Z,0.80
2018-12-05T15:41:49.597Z,0.70
2018-12-05T15:44:31.897Z,0.70
2018-12-05T15:47:09.635Z,0.60
2018-12-05T15:49:45.592Z,0.60
2018-12-05T15:52:21.059Z,0.60
2018-12-05T15:54:58.225Z,0.60
2018-12-05T15:57:39.166Z,0.60
2018-12-05T16:00:17.018Z,0.60
2018-12-05T16:02:50.435Z,0.60
2018-12-05T16:05:28.008Z,0.60
2018-12-05T16:08:05.972Z,0.50
2018-12-05T16:10:43.982Z,0.50
2018-12-05T16:13:21.947Z,0.40
2018-12-05T16:15:59.311Z,0.50
2018-12-05T16:18:37.655Z,0.50
2018-12-05T16:21:15.968Z,0.50
2018-12-05T16:23:52.947Z,0.40
2018-12-05T16:26:27.348Z,0.40
2018-12-05T16:28:58.005Z,0.30
2018-12-05T16:31:32.324Z,0.40
2018-12-05T16:34:08.856Z,0.50
2018-12-05T16:36:39.943Z,0.50
2018-12-05T16:39:14.910Z,0.40
2018-12-05T16:41:50.376Z,0.40
2018-12-05T16:44:27.653Z,0.30
2018-12-05T16:47:03.524Z,0.30
2018-12-05T16:49:41.354Z,0.30
2018-12-05T16:52:12.956Z,0.20
2018-12-05T16:54:48.237Z,0.20
2018-12-05T16:57:23.315Z,0.20
2018-12-05T16:59:52.754Z,0.20
2018-12-05T17:02:23.728Z,0.10
2018-12-05T17:04:55.209Z,0.10
2018-12-05T17:07:33.262Z,0.10
2018-12-05T17:10:02.669Z,0.10
2018-12-05T17:12:35.495Z,0.10
2018-12-05T17:15:10.014Z,0.10
2018-12-05T17:17:39.209Z,0.10
2018-12-05T17:20:08.749Z,0.20
2018-12-05T17:22:41.752Z,0.20
2018-12-05T17:25:14.028Z,0.20
2018-12-05T17:27:49.533Z,0.00
2018-12-05T17:30:25.156Z,0.10
2018-12-05T17:33:01.580Z,0.20
2018-12-05T17:35:40.551Z,0.20
2018-12-05T17:38:14.682Z,0.20
2018-12-05T17:40:53.606Z,0.20
2018-12-05T17:43:31.208Z,0.10
2018-12-05T17:46:06.738Z,0.10
2018-12-05T17:48:44.576Z,0.10
2018-12-05T17:51:25.295Z,0.10
2018-12-05T17:54:02.499Z,0.10
2018-12-05T17:56:39.353Z,0.10
2018-12-05T17:59:16.825Z,0.10
2018-12-05T18:01:48.673Z,0.10
2018-12-05T18:04:24.777Z,0.10
2018-12-05T18:07:03.994Z,0.10
2018-12-05T18:09:39.859Z,0.10
2018-12-05T18:12:19.451Z,0.10
2018-12-05T18:14:58.021Z,0.10
2018-12-05T18:17:36.954Z,0.10
2018-12-05T18:20:13.917Z,0.10
2018-12-05T18:22:50.984Z,0.10
2018-12-05T18:25:31.268Z,0.00
2018-12-05T18:28:08.610Z,0.00
2018-12-05T18:30:48.827Z,0.00
2018-12-05T18:33:25.372Z,-0.10
2018-12-05T18:36:03.662Z,-0.10
2018-12-05T18:38:41.963Z,0.00
2018-12-05T18:41:19.621Z,0.10
2018-12-05T18:43:54.293Z,0.10
2018-12-05T18:46:27.046Z,0.10
2018-12-05T18:49:01.744Z,0.00
2018-12-05T18:51:35.363Z,0.00
2018-12-05T18:54:12.948Z,0.10
2018-12-05T18:56:47.126Z,0.20
2018-12-05T19:06:09.844Z,0.10
2018-12-05T19:08:45.096Z,0.10
2018-12-05T19:11:21.460Z,0.00
2018-12-05T19:14:00.592Z,0.00
2018-12-05T19:16:34.999Z,0.00
2018-12-05T19:19:09.616Z,0.10
2018-12-05T19:21:43.284Z,0.10
2018-12-05T19:24:17.871Z,0.00
2018-12-05T19:26:52.917Z,0.00
2018-12-05T19:29:26.768Z,-0.10
2018-12-05T19:32:02.270Z,-0.10
2018-12-05T19:34:35.466Z,-0.10
2018-12-05T19:37:09.907Z,-0.20
2018-12-05T19:39:44.440Z,-0.20
2018-12-05T19:42:19.145Z,-0.20
2018-12-05T19:44:54.883Z,-0.20
2018-12-05T19:47:29.378Z,-0.20
2018-12-05T19:50:03.012Z,-0.20
2018-12-05T19:52:39.688Z,-0.20
2018-12-05T19:55:15.135Z,-0.30
2018-12-05T19:57:52.083Z,-0.20
2018-12-05T20:00:29.598Z,-0.10
2018-12-05T20:03:04.872Z,-0.20
2018-12-05T20:05:37.425Z,-0.30
2018-12-05T20:08:12.425Z,-0.30
2018-12-05T20:10:45.289Z,-0.30
2018-12-05T20:13:19.443Z,-0.20
2018-12-05T20:15:57.221Z,-0.20
2018-12-05T20:18:33.146Z,-0.10
2018-12-05T20:21:08.735Z,-0.20
2018-12-05T20:23:45.182Z,-0.20
2018-12-05T20:26:22.456Z,-0.20
2018-12-05T20:28:57.701Z,-0.30
2018-12-05T20:31:32.280Z,-0.30
2018-12-05T20:34:04.628Z,-0.40
2018-12-05T20:36:35.994Z,-0.40
2018-12-05T20:39:13.887Z,-0.40
2018-12-05T20:41:48.270Z,-0.50
2018-12-05T20:44:22.490Z,-0.40
2018-12-05T20:46:58.082Z,-0.50
2018-12-05T20:49:34.908Z,-0.40
2018-12-05T20:52:06.880Z,-0.40
2018-12-05T20:54:36.267Z,-0.40
2018-12-05T20:57:07.021Z,-0.30
2018-12-05T20:59:40.074Z,-0.30
2018-12-05T21:02:15.143Z,-0.30
2018-12-05T21:04:50.061Z,-0.30
2018-12-05T21:07:22.103Z,-0.30
2018-12-05T21:09:55.527Z,-0.40
2018-12-05T21:12:27.155Z,-0.30
2018-12-05T21:15:01.505Z,-0.40
2018-12-05T21:17:35.351Z,-0.50
2018-12-05T21:20:05.769Z,-0.40
2018-12-05T21:22:47.260Z,-0.50
2018-12-05T21:25:17.536Z,-0.40
2018-12-05T21:27:58.589Z,-0.30
2018-12-05T21:30:33.119Z,-0.30
2018-12-05T21:33:09.605Z,-0.30
2018-12-05T21:35:46.643Z,-0.30
2018-12-05T21:38:19.659Z,-0.30
2018-12-05T21:40:55.555Z,-0.20
2018-12-05T21:43:28.597Z,-0.20
2018-12-05T21:46:02.455Z,-0.20
2018-12-05T21:48:35.986Z,-0.20
2018-12-05T21:51:15.362Z,-0.20
2018-12-05T21:53:46.169Z,-0.20
2018-12-05T21:56:21.728Z,-0.20
2018-12-05T21:58:58.563Z,-0.20
2018-12-05T22:01:37.398Z,-0.20
2018-12-05T22:04:14.880Z,-0.20
2018-12-05T22:06:52.623Z,-0.20
2018-12-05T22:09:29.732Z,-0.20
2018-12-05T22:12:11.331Z,-0.20
2018-12-05T22:14:48.961Z,-0.20
2018-12-05T22:17:29.181Z,-0.30
2018-12-05T22:20:06.907Z,-0.30
2018-12-05T22:22:40.307Z,-0.30
2018-12-05T22:25:18.869Z,-0.30
2018-12-05T22:27:56.210Z,-0.30
2018-12-05T22:30:36.199Z,-0.30
2018-12-05T22:33:15.398Z,-0.30
2018-12-05T22:35:52.688Z,-0.30
2018-12-05T22:38:29.700Z,-0.30
2018-12-05T22:41:09.724Z,-0.30
2018-12-05T22:43:45.805Z,-0.20
2018-12-05T22:46:27.363Z,-0.30
2018-12-05T22:49:05.367Z,-0.20
2018-12-05T22:51:44.104Z,-0.30
2018-12-05T22:54:25.920Z,-0.20
2018-12-05T22:57:26.736Z,-0.20
2018-12-05T23:00:03.744Z,-0.20
2018-12-05T23:02:33.096Z,-0.30
2018-12-05T23:05:08.379Z,-0.20
2018-12-05T23:07:46.153Z,-0.20
2018-12-05T23:10:26.248Z,-0.20
2018-12-05T23:13:07.255Z,-0.20
2018-12-05T23:15:47.106Z,-0.20
2018-12-05T23:18:25.925Z,-0.20
2018-12-05T23:21:02.781Z,-0.20
2018-12-05T23:23:39.890Z,-0.20
2018-12-05T23:26:18.961Z,-0.20
2018-12-05T23:28:56.266Z,-0.30
2018-12-05T23:31:36.285Z,-0.30
2018-12-05T23:34:14.606Z,-0.30
2018-12-05T23:36:51.869Z,-0.30
2018-12-05T23:39:29.599Z,-0.30
2018-12-05T23:42:05.710Z,-0.40
2018-12-05T23:44:42.582Z,-0.40
2018-12-05T23:47:20.067Z,-0.30
2018-12-05T23:49:55.097Z,-0.30
2018-12-05T23:52:32.838Z,-0.20
2018-12-05T23:55:11.830Z,-0.30
2018-12-05T23:57:50.759Z,-0.30
